sensor_id;sensor_type;location;lat;lon;timestamp;P1;durP1;ratioP1;P2;durP2;ratioP2
9948;SDS011;5013;51.840;8.276;2023-02-03T00:00:54;39.30;;;34.60;;
9948;SDS011;5013;51.840;8.276;2023-02-03T00:03:20;46.60;;;36.03;;
9948;SDS011;5013;51.840;8.276;2023-02-03T00:05:46;41.97;;;33.83;;
9948;SDS011;5013;51.840;8.276;2023-02-03T00:08:12;43.30;;;34.73;;
9948;SDS011;5013;51.840;8.276;2023-02-03T00:10:38;36.63;;;31.80;;
9948;SDS011;5013;51.840;8.276;2023-02-03T00:13:04;44.93;;;36.47;;
9948;SDS011;5013;51.840;8.276;2023-02-03T00:15:31;40.03;;;35.33;;
9948;SDS011;5013;51.840;8.276;2023-02-03T00:17:56;48.33;;;38.07;;
9948;SDS011;5013;51.840;8.276;2023-02-03T00:20:22;44.97;;;36.73;;
9948;SDS011;5013;51.840;8.276;2023-02-03T00:22:49;43.17;;;36.00;;
9948;SDS011;5013;51.840;8.276;2023-02-03T00:25:15;41.33;;;33.93;;
9948;SDS011;5013;51.840;8.276;2023-02-03T00:27:41;38.57;;;32.77;;
9948;SDS011;5013;51.840;8.276;2023-02-03T00:30:07;40.07;;;34.27;;
9948;SDS011;5013;51.840;8.276;2023-02-03T00:32:33;39.27;;;35.03;;
9948;SDS011;5013;51.840;8.276;2023-02-03T00:34:58;39.80;;;34.07;;
9948;SDS011;5013;51.840;8.276;2023-02-03T00:37:24;43.20;;;35.97;;
9948;SDS011;5013;51.840;8.276;2023-02-03T00:39:49;46.30;;;35.67;;
9948;SDS011;5013;51.840;8.276;2023-02-03T00:42:15;45.87;;;37.80;;
9948;SDS011;5013;51.840;8.276;2023-02-03T00:44:41;45.00;;;35.73;;
9948;SDS011;5013;51.840;8.276;2023-02-03T00:47:06;41.40;;;36.30;;
9948;SDS011;5013;51.840;8.276;2023-02-03T00:49:32;45.00;;;36.73;;
9948;SDS011;5013;51.840;8.276;2023-02-03T00:51:57;44.27;;;34.90;;
9948;SDS011;5013;51.840;8.276;2023-02-03T00:54:23;44.77;;;35.80;;
9948;SDS011;5013;51.840;8.276;2023-02-03T00:56:49;44.77;;;34.30;;
9948;SDS011;5013;51.840;8.276;2023-02-03T00:59:14;49.50;;;37.07;;
9948;SDS011;5013;51.840;8.276;2023-02-03T01:01:40;44.90;;;35.13;;
9948;SDS011;5013;51.840;8.276;2023-02-03T01:04:05;46.50;;;36.23;;
9948;SDS011;5013;51.840;8.276;2023-02-03T01:06:31;45.83;;;37.30;;
9948;SDS011;5013;51.840;8.276;2023-02-03T01:08:57;45.23;;;36.00;;
9948;SDS011;5013;51.840;8.276;2023-02-03T01:11:24;47.03;;;36.03;;
9948;SDS011;5013;51.840;8.276;2023-02-03T01:13:52;43.70;;;36.17;;
9948;SDS011;5013;51.840;8.276;2023-02-03T01:16:19;49.37;;;36.47;;
9948;SDS011;5013;51.840;8.276;2023-02-03T01:18:45;40.77;;;34.30;;
9948;SDS011;5013;51.840;8.276;2023-02-03T01:21:16;40.50;;;33.70;;
9948;SDS011;5013;51.840;8.276;2023-02-03T01:23:44;45.93;;;34.77;;
9948;SDS011;5013;51.840;8.276;2023-02-03T01:26:11;52.20;;;36.00;;
9948;SDS011;5013;51.840;8.276;2023-02-03T01:28:38;44.67;;;35.37;;
9948;SDS011;5013;51.840;8.276;2023-02-03T01:31:15;44.20;;;34.07;;
9948;SDS011;5013;51.840;8.276;2023-02-03T01:33:42;48.87;;;35.67;;
9948;SDS011;5013;51.840;8.276;2023-02-03T01:36:11;39.23;;;33.67;;
9948;SDS011;5013;51.840;8.276;2023-02-03T01:38:38;44.37;;;34.33;;
9948;SDS011;5013;51.840;8.276;2023-02-03T01:41:04;50.07;;;33.03;;
9948;SDS011;5013;51.840;8.276;2023-02-03T01:43:32;48.50;;;32.47;;
9948;SDS011;5013;51.840;8.276;2023-02-03T01:46:01;38.03;;;31.63;;
9948;SDS011;5013;51.840;8.276;2023-02-03T01:48:42;33.90;;;30.03;;
9948;SDS011;5013;51.840;8.276;2023-02-03T01:51:08;38.83;;;31.50;;
9948;SDS011;5013;51.840;8.276;2023-02-03T01:53:34;43.33;;;30.57;;
9948;SDS011;5013;51.840;8.276;2023-02-03T01:56:01;36.30;;;30.47;;
9948;SDS011;5013;51.840;8.276;2023-02-03T01:58:30;39.47;;;30.63;;
9948;SDS011;5013;51.840;8.276;2023-02-03T02:00:57;36.57;;;30.43;;
9948;SDS011;5013;51.840;8.276;2023-02-03T02:03:24;40.43;;;30.23;;
9948;SDS011;5013;51.840;8.276;2023-02-03T02:05:57;35.80;;;27.40;;
9948;SDS011;5013;51.840;8.276;2023-02-03T02:08:31;37.67;;;28.83;;
9948;SDS011;5013;51.840;8.276;2023-02-03T02:11:00;34.97;;;27.90;;
9948;SDS011;5013;51.840;8.276;2023-02-03T02:13:26;32.13;;;26.47;;
9948;SDS011;5013;51.840;8.276;2023-02-03T02:26:56;35.43;;;26.00;;
9948;SDS011;5013;51.840;8.276;2023-02-03T02:29:50;33.40;;;26.83;;
9948;SDS011;5013;51.840;8.276;2023-02-03T02:32:47;35.13;;;26.60;;
9948;SDS011;5013;51.840;8.276;2023-02-03T02:41:01;26.90;;;23.23;;
9948;SDS011;5013;51.840;8.276;2023-02-03T02:46:38;31.53;;;22.90;;
9948;SDS011;5013;51.840;8.276;2023-02-03T02:49:08;31.80;;;23.00;;
9948;SDS011;5013;51.840;8.276;2023-02-03T02:52:07;30.23;;;21.63;;
9948;SDS011;5013;51.840;8.276;2023-02-03T02:54:36;33.97;;;23.37;;
9948;SDS011;5013;51.840;8.276;2023-02-03T02:57:05;28.80;;;21.60;;
9948;SDS011;5013;51.840;8.276;2023-02-03T02:59:35;31.07;;;21.40;;
9948;SDS011;5013;51.840;8.276;2023-02-03T03:02:01;30.07;;;21.30;;
9948;SDS011;5013;51.840;8.276;2023-02-03T03:04:28;28.63;;;21.53;;
9948;SDS011;5013;51.840;8.276;2023-02-03T03:07:00;25.87;;;20.50;;
9948;SDS011;5013;51.840;8.276;2023-02-03T03:09:40;28.90;;;20.13;;
9948;SDS011;5013;51.840;8.276;2023-02-03T03:12:19;28.97;;;20.93;;
9948;SDS011;5013;51.840;8.276;2023-02-03T03:14:49;27.93;;;21.83;;
9948;SDS011;5013;51.840;8.276;2023-02-03T03:17:23;29.93;;;19.93;;
9948;SDS011;5013;51.840;8.276;2023-02-03T03:19:55;31.50;;;21.20;;
9948;SDS011;5013;51.840;8.276;2023-02-03T03:22:29;28.47;;;19.73;;
9948;SDS011;5013;51.840;8.276;2023-02-03T03:24:59;26.53;;;20.07;;
9948;SDS011;5013;51.840;8.276;2023-02-03T03:27:34;30.70;;;20.13;;
9948;SDS011;5013;51.840;8.276;2023-02-03T03:30:09;26.90;;;19.23;;
9948;SDS011;5013;51.840;8.276;2023-02-03T03:32:41;34.03;;;21.20;;
9948;SDS011;5013;51.840;8.276;2023-02-03T03:35:07;27.17;;;21.13;;
9948;SDS011;5013;51.840;8.276;2023-02-03T03:37:34;25.97;;;18.30;;
9948;SDS011;5013;51.840;8.276;2023-02-03T03:45:13;27.03;;;19.00;;
9948;SDS011;5013;51.840;8.276;2023-02-03T03:50:21;26.97;;;18.60;;
9948;SDS011;5013;51.840;8.276;2023-02-03T03:52:53;27.57;;;18.87;;
9948;SDS011;5013;51.840;8.276;2023-02-03T03:55:21;29.43;;;19.07;;
9948;SDS011;5013;51.840;8.276;2023-02-03T03:57:57;25.73;;;16.83;;
9948;SDS011;5013;51.840;8.276;2023-02-03T04:00:27;28.00;;;19.80;;
9948;SDS011;5013;51.840;8.276;2023-02-03T04:02:55;26.57;;;18.43;;
9948;SDS011;5013;51.840;8.276;2023-02-03T04:05:22;26.97;;;17.53;;
9948;SDS011;5013;51.840;8.276;2023-02-03T04:07:48;24.57;;;18.23;;
9948;SDS011;5013;51.840;8.276;2023-02-03T04:10:24;22.47;;;18.07;;
9948;SDS011;5013;51.840;8.276;2023-02-03T04:12:55;24.87;;;18.40;;
9948;SDS011;5013;51.840;8.276;2023-02-03T04:15:20;23.70;;;17.97;;
9948;SDS011;5013;51.840;8.276;2023-02-03T04:17:46;25.13;;;17.97;;
9948;SDS011;5013;51.840;8.276;2023-02-03T04:20:12;26.73;;;18.87;;
9948;SDS011;5013;51.840;8.276;2023-02-03T04:22:39;22.33;;;17.30;;
9948;SDS011;5013;51.840;8.276;2023-02-03T04:25:04;21.73;;;16.07;;
9948;SDS011;5013;51.840;8.276;2023-02-03T04:27:30;25.67;;;17.23;;
9948;SDS011;5013;51.840;8.276;2023-02-03T04:29:56;22.27;;;17.17;;
9948;SDS011;5013;51.840;8.276;2023-02-03T04:32:21;29.67;;;17.67;;
9948;SDS011;5013;51.840;8.276;2023-02-03T04:34:47;23.17;;;15.27;;
9948;SDS011;5013;51.840;8.276;2023-02-03T04:37:12;20.57;;;16.27;;
9948;SDS011;5013;51.840;8.276;2023-02-03T04:39:38;23.17;;;15.17;;
9948;SDS011;5013;51.840;8.276;2023-02-03T04:42:03;22.60;;;15.23;;
9948;SDS011;5013;51.840;8.276;2023-02-03T04:44:29;22.63;;;15.37;;
9948;SDS011;5013;51.840;8.276;2023-02-03T04:46:55;20.37;;;15.00;;
9948;SDS011;5013;51.840;8.276;2023-02-03T04:49:20;20.50;;;14.27;;
9948;SDS011;5013;51.840;8.276;2023-02-03T04:51:49;22.73;;;13.53;;
9948;SDS011;5013;51.840;8.276;2023-02-03T04:54:14;21.73;;;13.97;;
9948;SDS011;5013;51.840;8.276;2023-02-03T04:56:40;22.83;;;14.00;;
9948;SDS011;5013;51.840;8.276;2023-02-03T04:59:06;26.30;;;14.23;;
9948;SDS011;5013;51.840;8.276;2023-02-03T05:01:32;24.47;;;14.20;;
9948;SDS011;5013;51.840;8.276;2023-02-03T05:03:58;22.60;;;13.83;;
9948;SDS011;5013;51.840;8.276;2023-02-03T05:06:24;20.43;;;12.50;;
9948;SDS011;5013;51.840;8.276;2023-02-03T05:08:52;20.13;;;13.43;;
9948;SDS011;5013;51.840;8.276;2023-02-03T05:11:18;20.13;;;12.63;;
9948;SDS011;5013;51.840;8.276;2023-02-03T05:13:44;17.27;;;12.53;;
9948;SDS011;5013;51.840;8.276;2023-02-03T05:16:10;24.23;;;13.50;;
9948;SDS011;5013;51.840;8.276;2023-02-03T05:18:35;19.47;;;12.43;;
9948;SDS011;5013;51.840;8.276;2023-02-03T05:21:01;19.13;;;12.30;;
9948;SDS011;5013;51.840;8.276;2023-02-03T05:23:26;17.97;;;12.30;;
9948;SDS011;5013;51.840;8.276;2023-02-03T05:25:52;16.73;;;11.77;;
9948;SDS011;5013;51.840;8.276;2023-02-03T05:28:17;21.20;;;11.60;;
9948;SDS011;5013;51.840;8.276;2023-02-03T05:30:43;21.67;;;13.20;;
9948;SDS011;5013;51.840;8.276;2023-02-03T05:33:08;17.07;;;12.37;;
9948;SDS011;5013;51.840;8.276;2023-02-03T05:35:34;22.63;;;12.47;;
9948;SDS011;5013;51.840;8.276;2023-02-03T05:38:00;18.10;;;11.60;;
9948;SDS011;5013;51.840;8.276;2023-02-03T05:40:26;20.93;;;11.73;;
9948;SDS011;5013;51.840;8.276;2023-02-03T05:43:10;22.23;;;12.47;;
9948;SDS011;5013;51.840;8.276;2023-02-03T05:45:36;23.57;;;11.57;;
9948;SDS011;5013;51.840;8.276;2023-02-03T05:48:02;22.73;;;12.23;;
9948;SDS011;5013;51.840;8.276;2023-02-03T05:50:28;18.40;;;11.97;;
9948;SDS011;5013;51.840;8.276;2023-02-03T05:52:57;15.60;;;11.23;;
9948;SDS011;5013;51.840;8.276;2023-02-03T05:55:27;18.83;;;11.03;;
9948;SDS011;5013;51.840;8.276;2023-02-03T05:57:53;14.83;;;11.13;;
9948;SDS011;5013;51.840;8.276;2023-02-03T06:00:19;20.23;;;10.83;;
9948;SDS011;5013;51.840;8.276;2023-02-03T06:02:52;15.37;;;11.10;;
9948;SDS011;5013;51.840;8.276;2023-02-03T06:05:20;14.20;;;10.60;;
9948;SDS011;5013;51.840;8.276;2023-02-03T06:07:46;20.80;;;10.67;;
9948;SDS011;5013;51.840;8.276;2023-02-03T06:10:12;16.53;;;10.50;;
9948;SDS011;5013;51.840;8.276;2023-02-03T06:12:38;20.37;;;10.90;;
9948;SDS011;5013;51.840;8.276;2023-02-03T06:15:04;13.07;;;9.83;;
9948;SDS011;5013;51.840;8.276;2023-02-03T06:17:30;18.17;;;10.93;;
9948;SDS011;5013;51.840;8.276;2023-02-03T06:19:55;16.63;;;10.80;;
9948;SDS011;5013;51.840;8.276;2023-02-03T06:22:21;13.27;;;9.80;;
9948;SDS011;5013;51.840;8.276;2023-02-03T06:24:47;13.33;;;9.83;;
9948;SDS011;5013;51.840;8.276;2023-02-03T06:27:13;16.17;;;9.97;;
9948;SDS011;5013;51.840;8.276;2023-02-03T06:29:39;16.07;;;10.00;;
9948;SDS011;5013;51.840;8.276;2023-02-03T06:32:06;20.20;;;10.07;;
9948;SDS011;5013;51.840;8.276;2023-02-03T06:34:32;21.17;;;12.40;;
9948;SDS011;5013;51.840;8.276;2023-02-03T06:36:57;17.20;;;11.13;;
9948;SDS011;5013;51.840;8.276;2023-02-03T06:39:23;15.17;;;10.57;;
9948;SDS011;5013;51.840;8.276;2023-02-03T06:41:49;15.60;;;10.97;;
9948;SDS011;5013;51.840;8.276;2023-02-03T06:44:16;16.00;;;11.43;;
9948;SDS011;5013;51.840;8.276;2023-02-03T06:46:42;19.53;;;12.83;;
9948;SDS011;5013;51.840;8.276;2023-02-03T06:49:08;18.07;;;11.83;;
9948;SDS011;5013;51.840;8.276;2023-02-03T06:51:34;21.90;;;13.53;;
9948;SDS011;5013;51.840;8.276;2023-02-03T06:53:59;25.57;;;13.50;;
9948;SDS011;5013;51.840;8.276;2023-02-03T06:56:25;20.33;;;13.70;;
9948;SDS011;5013;51.840;8.276;2023-02-03T06:58:51;19.90;;;13.93;;
9948;SDS011;5013;51.840;8.276;2023-02-03T07:01:16;19.70;;;13.47;;
9948;SDS011;5013;51.840;8.276;2023-02-03T07:03:42;20.77;;;13.47;;
9948;SDS011;5013;51.840;8.276;2023-02-03T07:06:08;19.60;;;13.40;;
9948;SDS011;5013;51.840;8.276;2023-02-03T07:08:33;20.23;;;14.00;;
9948;SDS011;5013;51.840;8.276;2023-02-03T07:10:59;20.53;;;12.33;;
9948;SDS011;5013;51.840;8.276;2023-02-03T07:13:25;20.40;;;13.10;;
9948;SDS011;5013;51.840;8.276;2023-02-03T07:15:50;17.37;;;12.27;;
9948;SDS011;5013;51.840;8.276;2023-02-03T07:18:16;23.77;;;13.37;;
9948;SDS011;5013;51.840;8.276;2023-02-03T07:20:43;18.50;;;12.17;;
9948;SDS011;5013;51.840;8.276;2023-02-03T07:23:08;19.00;;;11.60;;
9948;SDS011;5013;51.840;8.276;2023-02-03T07:25:34;22.47;;;13.40;;
9948;SDS011;5013;51.840;8.276;2023-02-03T07:27:59;15.27;;;12.90;;
9948;SDS011;5013;51.840;8.276;2023-02-03T07:30:25;21.07;;;14.10;;
9948;SDS011;5013;51.840;8.276;2023-02-03T07:32:51;22.60;;;13.60;;
9948;SDS011;5013;51.840;8.276;2023-02-03T07:35:17;19.90;;;12.70;;
9948;SDS011;5013;51.840;8.276;2023-02-03T07:37:43;18.63;;;13.27;;
9948;SDS011;5013;51.840;8.276;2023-02-03T07:40:10;26.37;;;13.23;;
9948;SDS011;5013;51.840;8.276;2023-02-03T07:42:40;18.00;;;11.93;;
9948;SDS011;5013;51.840;8.276;2023-02-03T07:45:06;17.70;;;11.87;;
9948;SDS011;5013;51.840;8.276;2023-02-03T07:47:33;16.77;;;11.67;;
9948;SDS011;5013;51.840;8.276;2023-02-03T07:49:59;20.07;;;11.73;;
9948;SDS011;5013;51.840;8.276;2023-02-03T07:52:24;18.27;;;11.07;;
9948;SDS011;5013;51.840;8.276;2023-02-03T07:54:50;20.57;;;9.90;;
9948;SDS011;5013;51.840;8.276;2023-02-03T07:57:15;14.83;;;9.80;;
9948;SDS011;5013;51.840;8.276;2023-02-03T07:59:41;25.47;;;10.77;;
9948;SDS011;5013;51.840;8.276;2023-02-03T08:02:07;18.63;;;10.20;;
9948;SDS011;5013;51.840;8.276;2023-02-03T08:04:35;15.73;;;9.20;;
9948;SDS011;5013;51.840;8.276;2023-02-03T08:07:01;14.47;;;9.23;;
9948;SDS011;5013;51.840;8.276;2023-02-03T08:09:27;18.83;;;10.10;;
9948;SDS011;5013;51.840;8.276;2023-02-03T08:11:52;18.63;;;10.20;;
9948;SDS011;5013;51.840;8.276;2023-02-03T08:14:18;22.57;;;11.03;;
9948;SDS011;5013;51.840;8.276;2023-02-03T08:16:43;14.80;;;10.13;;
9948;SDS011;5013;51.840;8.276;2023-02-03T08:19:10;19.07;;;9.77;;
9948;SDS011;5013;51.840;8.276;2023-02-03T08:21:35;19.97;;;11.53;;
9948;SDS011;5013;51.840;8.276;2023-02-03T08:24:01;26.33;;;11.23;;
9948;SDS011;5013;51.840;8.276;2023-02-03T08:26:27;18.93;;;11.03;;
9948;SDS011;5013;51.840;8.276;2023-02-03T08:28:52;19.97;;;10.63;;
9948;SDS011;5013;51.840;8.276;2023-02-03T08:31:18;19.20;;;11.37;;
9948;SDS011;5013;51.840;8.276;2023-02-03T08:33:43;19.73;;;11.73;;
9948;SDS011;5013;51.840;8.276;2023-02-03T08:36:09;19.73;;;11.47;;
9948;SDS011;5013;51.840;8.276;2023-02-03T08:38:35;22.93;;;11.93;;
9948;SDS011;5013;51.840;8.276;2023-02-03T08:41:06;21.30;;;11.50;;
9948;SDS011;5013;51.840;8.276;2023-02-03T08:43:33;16.83;;;12.10;;
9948;SDS011;5013;51.840;8.276;2023-02-03T08:46:07;21.97;;;13.23;;
9948;SDS011;5013;51.840;8.276;2023-02-03T08:48:33;25.73;;;12.13;;
9948;SDS011;5013;51.840;8.276;2023-02-03T08:50:59;21.47;;;12.43;;
9948;SDS011;5013;51.840;8.276;2023-02-03T08:53:25;22.97;;;12.73;;
9948;SDS011;5013;51.840;8.276;2023-02-03T08:55:50;25.40;;;12.50;;
9948;SDS011;5013;51.840;8.276;2023-02-03T08:58:16;20.83;;;11.40;;
9948;SDS011;5013;51.840;8.276;2023-02-03T09:00:42;19.27;;;10.33;;
9948;SDS011;5013;51.840;8.276;2023-02-03T09:03:07;20.23;;;11.73;;
9948;SDS011;5013;51.840;8.276;2023-02-03T09:05:33;24.60;;;12.23;;
9948;SDS011;5013;51.840;8.276;2023-02-03T09:07:59;19.23;;;10.87;;
9948;SDS011;5013;51.840;8.276;2023-02-03T09:10:25;26.10;;;11.37;;
9948;SDS011;5013;51.840;8.276;2023-02-03T09:12:50;15.97;;;10.40;;
9948;SDS011;5013;51.840;8.276;2023-02-03T09:15:16;18.30;;;9.87;;
9948;SDS011;5013;51.840;8.276;2023-02-03T09:17:41;23.73;;;10.53;;
9948;SDS011;5013;51.840;8.276;2023-02-03T09:20:07;17.60;;;10.00;;
9948;SDS011;5013;51.840;8.276;2023-02-03T09:22:33;13.50;;;9.07;;
9948;SDS011;5013;51.840;8.276;2023-02-03T09:24:59;22.90;;;10.37;;
9948;SDS011;5013;51.840;8.276;2023-02-03T09:27:25;18.97;;;9.13;;
9948;SDS011;5013;51.840;8.276;2023-02-03T09:29:50;19.20;;;8.80;;
9948;SDS011;5013;51.840;8.276;2023-02-03T09:32:16;16.77;;;9.00;;
9948;SDS011;5013;51.840;8.276;2023-02-03T09:34:41;12.13;;;8.90;;
9948;SDS011;5013;51.840;8.276;2023-02-03T09:37:07;19.10;;;8.40;;
9948;SDS011;5013;51.840;8.276;2023-02-03T09:39:33;16.63;;;9.43;;
9948;SDS011;5013;51.840;8.276;2023-02-03T09:42:10;20.40;;;8.47;;
9948;SDS011;5013;51.840;8.276;2023-02-03T09:47:26;22.70;;;7.93;;
9948;SDS011;5013;51.840;8.276;2023-02-03T09:49:57;18.00;;;9.00;;
9948;SDS011;5013;51.840;8.276;2023-02-03T09:52:26;21.67;;;8.50;;
9948;SDS011;5013;51.840;8.276;2023-02-03T09:55:16;16.00;;;9.37;;
9948;SDS011;5013;51.840;8.276;2023-02-03T09:58:32;15.83;;;8.40;;
9948;SDS011;5013;51.840;8.276;2023-02-03T10:00:41;25.10;;;8.83;;
9948;SDS011;5013;51.840;8.276;2023-02-03T10:05:42;22.37;;;8.93;;
9948;SDS011;5013;51.840;8.276;2023-02-03T10:11:24;16.13;;;8.33;;
9948;SDS011;5013;51.840;8.276;2023-02-03T10:22:12;22.80;;;8.70;;
9948;SDS011;5013;51.840;8.276;2023-02-03T10:24:47;19.13;;;7.67;;
9948;SDS011;5013;51.840;8.276;2023-02-03T10:27:26;25.27;;;8.23;;
9948;SDS011;5013;51.840;8.276;2023-02-03T10:30:01;17.47;;;7.70;;
9948;SDS011;5013;51.840;8.276;2023-02-03T10:32:30;20.50;;;8.97;;
9948;SDS011;5013;51.840;8.276;2023-02-03T10:34:56;22.37;;;8.70;;
9948;SDS011;5013;51.840;8.276;2023-02-03T10:39:53;19.23;;;8.20;;
9948;SDS011;5013;51.840;8.276;2023-02-03T10:42:21;20.87;;;9.13;;
9948;SDS011;5013;51.840;8.276;2023-02-03T10:44:48;23.83;;;8.80;;
9948;SDS011;5013;51.840;8.276;2023-02-03T10:49:50;25.57;;;10.10;;
9948;SDS011;5013;51.840;8.276;2023-02-03T10:52:27;18.03;;;9.33;;
9948;SDS011;5013;51.840;8.276;2023-02-03T10:54:53;20.53;;;9.07;;
9948;SDS011;5013;51.840;8.276;2023-02-03T10:57:20;22.73;;;9.63;;
9948;SDS011;5013;51.840;8.276;2023-02-03T10:59:46;22.47;;;9.63;;
9948;SDS011;5013;51.840;8.276;2023-02-03T11:02:21;21.50;;;10.23;;
9948;SDS011;5013;51.840;8.276;2023-02-03T11:04:47;22.03;;;9.70;;
9948;SDS011;5013;51.840;8.276;2023-02-03T11:07:30;17.87;;;8.40;;
9948;SDS011;5013;51.840;8.276;2023-02-03T11:09:56;23.53;;;9.27;;
9948;SDS011;5013;51.840;8.276;2023-02-03T11:12:21;15.47;;;8.20;;
9948;SDS011;5013;51.840;8.276;2023-02-03T11:14:48;19.77;;;8.07;;
9948;SDS011;5013;51.840;8.276;2023-02-03T11:17:18;17.60;;;8.80;;
9948;SDS011;5013;51.840;8.276;2023-02-03T11:19:49;15.00;;;7.57;;
9948;SDS011;5013;51.840;8.276;2023-02-03T11:22:30;15.10;;;8.17;;
9948;SDS011;5013;51.840;8.276;2023-02-03T11:25:03;18.63;;;8.13;;
9948;SDS011;5013;51.840;8.276;2023-02-03T11:27:41;20.60;;;8.63;;
9948;SDS011;5013;51.840;8.276;2023-02-03T11:30:13;17.97;;;8.23;;
9948;SDS011;5013;51.840;8.276;2023-02-03T11:32:43;15.47;;;7.83;;
9948;SDS011;5013;51.840;8.276;2023-02-03T11:37:50;16.87;;;7.67;;
9948;SDS011;5013;51.840;8.276;2023-02-03T11:45:26;17.53;;;8.17;;
9948;SDS011;5013;51.840;8.276;2023-02-03T11:50:20;26.17;;;8.70;;
9948;SDS011;5013;51.840;8.276;2023-02-03T11:55:28;21.63;;;8.40;;
9948;SDS011;5013;51.840;8.276;2023-02-03T12:00:57;16.37;;;9.43;;
9948;SDS011;5013;51.840;8.276;2023-02-03T12:06:17;24.53;;;9.83;;
9948;SDS011;5013;51.840;8.276;2023-02-03T12:09:16;17.17;;;7.77;;
9948;SDS011;5013;51.840;8.276;2023-02-03T12:26:33;20.50;;;5.27;;
9948;SDS011;5013;51.840;8.276;2023-02-03T12:29:13;24.07;;;5.47;;
9948;SDS011;5013;51.840;8.276;2023-02-03T12:34:37;20.80;;;4.80;;
9948;SDS011;5013;51.840;8.276;2023-02-03T12:37:15;18.40;;;4.27;;
9948;SDS011;5013;51.840;8.276;2023-02-03T12:39:51;18.83;;;4.83;;
9948;SDS011;5013;51.840;8.276;2023-02-03T12:42:21;14.70;;;4.57;;
9948;SDS011;5013;51.840;8.276;2023-02-03T12:45:19;15.30;;;4.80;;
9948;SDS011;5013;51.840;8.276;2023-02-03T12:50:44;21.93;;;5.20;;
9948;SDS011;5013;51.840;8.276;2023-02-03T12:53:13;20.70;;;5.00;;
9948;SDS011;5013;51.840;8.276;2023-02-03T12:55:51;26.77;;;5.43;;
9948;SDS011;5013;51.840;8.276;2023-02-03T13:01:23;27.30;;;6.03;;
9948;SDS011;5013;51.840;8.276;2023-02-03T13:06:48;23.50;;;5.70;;
9948;SDS011;5013;51.840;8.276;2023-02-03T13:09:40;29.63;;;5.70;;
9948;SDS011;5013;51.840;8.276;2023-02-03T13:17:54;28.57;;;5.37;;
9948;SDS011;5013;51.840;8.276;2023-02-03T13:20:33;24.60;;;5.00;;
9948;SDS011;5013;51.840;8.276;2023-02-03T13:23:06;27.43;;;6.33;;
9948;SDS011;5013;51.840;8.276;2023-02-03T13:26:27;24.03;;;5.70;;
9948;SDS011;5013;51.840;8.276;2023-02-03T13:42:22;33.90;;;6.17;;
9948;SDS011;5013;51.840;8.276;2023-02-03T13:44:55;36.13;;;6.27;;
9948;SDS011;5013;51.840;8.276;2023-02-03T13:47:25;22.83;;;5.27;;
9948;SDS011;5013;51.840;8.276;2023-02-03T13:49:54;35.73;;;6.10;;
9948;SDS011;5013;51.840;8.276;2023-02-03T13:52:45;31.37;;;6.23;;
9948;SDS011;5013;51.840;8.276;2023-02-03T13:55:41;39.07;;;6.77;;
9948;SDS011;5013;51.840;8.276;2023-02-03T13:58:07;30.77;;;5.77;;
9948;SDS011;5013;51.840;8.276;2023-02-03T14:05:48;29.63;;;6.27;;
9948;SDS011;5013;51.840;8.276;2023-02-03T14:16:34;32.43;;;6.43;;
9948;SDS011;5013;51.840;8.276;2023-02-03T14:19:00;29.97;;;6.10;;
9948;SDS011;5013;51.840;8.276;2023-02-03T14:21:26;27.40;;;5.70;;
9948;SDS011;5013;51.840;8.276;2023-02-03T14:24:04;29.37;;;6.10;;
9948;SDS011;5013;51.840;8.276;2023-02-03T14:26:35;35.67;;;6.53;;
9948;SDS011;5013;51.840;8.276;2023-02-03T14:29:05;28.93;;;5.57;;
9948;SDS011;5013;51.840;8.276;2023-02-03T14:31:50;36.93;;;6.67;;
9948;SDS011;5013;51.840;8.276;2023-02-03T14:34:34;33.67;;;5.93;;
9948;SDS011;5013;51.840;8.276;2023-02-03T14:39:58;30.50;;;4.90;;
9948;SDS011;5013;51.840;8.276;2023-02-03T14:51:34;32.97;;;6.03;;
9948;SDS011;5013;51.840;8.276;2023-02-03T14:54:34;31.67;;;5.93;;
9948;SDS011;5013;51.840;8.276;2023-02-03T15:05:34;28.00;;;6.50;;
9948;SDS011;5013;51.840;8.276;2023-02-03T15:08:00;34.97;;;6.63;;
9948;SDS011;5013;51.840;8.276;2023-02-03T15:10:42;23.77;;;5.50;;
9948;SDS011;5013;51.840;8.276;2023-02-03T15:15:59;32.10;;;5.37;;
9948;SDS011;5013;51.840;8.276;2023-02-03T15:18:29;35.50;;;6.53;;
9948;SDS011;5013;51.840;8.276;2023-02-03T15:20:56;26.60;;;5.83;;
9948;SDS011;5013;51.840;8.276;2023-02-03T15:23:24;34.27;;;6.13;;
9948;SDS011;5013;51.840;8.276;2023-02-03T15:25:52;37.70;;;6.70;;
9948;SDS011;5013;51.840;8.276;2023-02-03T15:28:21;27.93;;;6.37;;
9948;SDS011;5013;51.840;8.276;2023-02-03T15:30:49;32.07;;;6.33;;
9948;SDS011;5013;51.840;8.276;2023-02-03T15:33:18;27.00;;;5.37;;
9948;SDS011;5013;51.840;8.276;2023-02-03T15:35:47;24.30;;;5.43;;
9948;SDS011;5013;51.840;8.276;2023-02-03T15:38:22;30.83;;;5.57;;
9948;SDS011;5013;51.840;8.276;2023-02-03T15:40:55;29.57;;;6.67;;
9948;SDS011;5013;51.840;8.276;2023-02-03T15:43:29;24.70;;;5.93;;
9948;SDS011;5013;51.840;8.276;2023-02-03T15:46:23;39.33;;;7.00;;
9948;SDS011;5013;51.840;8.276;2023-02-03T15:49:45;25.43;;;6.53;;
9948;SDS011;5013;51.840;8.276;2023-02-03T15:51:47;31.97;;;5.53;;
9948;SDS011;5013;51.840;8.276;2023-02-03T15:56:47;31.37;;;5.27;;
9948;SDS011;5013;51.840;8.276;2023-02-03T15:59:39;31.07;;;7.00;;
9948;SDS011;5013;51.840;8.276;2023-02-03T16:04:38;34.07;;;6.60;;
9948;SDS011;5013;51.840;8.276;2023-02-03T16:07:04;31.83;;;6.07;;
9948;SDS011;5013;51.840;8.276;2023-02-03T16:09:33;35.37;;;6.67;;
9948;SDS011;5013;51.840;8.276;2023-02-03T16:15:02;27.73;;;7.97;;
9948;SDS011;5013;51.840;8.276;2023-02-03T16:17:29;28.77;;;7.60;;
9948;SDS011;5013;51.840;8.276;2023-02-03T16:22:35;28.10;;;5.67;;
9948;SDS011;5013;51.840;8.276;2023-02-03T16:31:09;28.40;;;6.10;;
9948;SDS011;5013;51.840;8.276;2023-02-03T16:33:59;30.17;;;7.00;;
9948;SDS011;5013;51.840;8.276;2023-02-03T16:36:44;32.60;;;6.47;;
9948;SDS011;5013;51.840;8.276;2023-02-03T16:39:28;33.13;;;6.20;;
9948;SDS011;5013;51.840;8.276;2023-02-03T16:42:14;37.63;;;6.83;;
9948;SDS011;5013;51.840;8.276;2023-02-03T16:45:00;39.73;;;6.47;;
9948;SDS011;5013;51.840;8.276;2023-02-03T16:47:45;30.30;;;6.20;;
9948;SDS011;5013;51.840;8.276;2023-02-03T16:50:29;29.63;;;6.33;;
9948;SDS011;5013;51.840;8.276;2023-02-03T16:53:15;32.23;;;6.67;;
9948;SDS011;5013;51.840;8.276;2023-02-03T16:55:46;32.33;;;5.83;;
9948;SDS011;5013;51.840;8.276;2023-02-03T16:58:12;31.53;;;6.40;;
9948;SDS011;5013;51.840;8.276;2023-02-03T17:00:39;39.27;;;6.60;;
9948;SDS011;5013;51.840;8.276;2023-02-03T17:03:06;34.20;;;6.60;;
9948;SDS011;5013;51.840;8.276;2023-02-03T17:05:37;31.87;;;6.20;;
9948;SDS011;5013;51.840;8.276;2023-02-03T17:08:04;33.03;;;7.03;;
9948;SDS011;5013;51.840;8.276;2023-02-03T17:10:29;40.03;;;6.53;;
9948;SDS011;5013;51.840;8.276;2023-02-03T17:12:58;41.10;;;6.23;;
9948;SDS011;5013;51.840;8.276;2023-02-03T17:15:24;41.30;;;7.70;;
9948;SDS011;5013;51.840;8.276;2023-02-03T17:17:49;45.77;;;6.23;;
9948;SDS011;5013;51.840;8.276;2023-02-03T17:20:15;40.60;;;6.67;;
9948;SDS011;5013;51.840;8.276;2023-02-03T17:22:41;31.53;;;5.50;;
9948;SDS011;5013;51.840;8.276;2023-02-03T17:25:06;31.63;;;7.10;;
9948;SDS011;5013;51.840;8.276;2023-02-03T17:27:32;36.87;;;7.13;;
9948;SDS011;5013;51.840;8.276;2023-02-03T17:29:57;31.50;;;6.53;;
9948;SDS011;5013;51.840;8.276;2023-02-03T17:32:23;41.67;;;6.43;;
9948;SDS011;5013;51.840;8.276;2023-02-03T17:34:49;26.60;;;6.53;;
9948;SDS011;5013;51.840;8.276;2023-02-03T17:37:14;38.60;;;7.93;;
9948;SDS011;5013;51.840;8.276;2023-02-03T17:39:40;34.87;;;6.67;;
9948;SDS011;5013;51.840;8.276;2023-02-03T17:42:05;40.00;;;7.23;;
9948;SDS011;5013;51.840;8.276;2023-02-03T17:44:32;31.67;;;6.13;;
9948;SDS011;5013;51.840;8.276;2023-02-03T17:46:58;39.07;;;7.10;;
9948;SDS011;5013;51.840;8.276;2023-02-03T17:49:24;43.27;;;7.73;;
9948;SDS011;5013;51.840;8.276;2023-02-03T17:51:49;44.57;;;6.53;;
9948;SDS011;5013;51.840;8.276;2023-02-03T17:54:15;40.87;;;8.03;;